Time;durP1;ratioP1;P1;durP2;ratioP2;P2;SDS_P1;SDS_P2;PMS_P1;PMS_P2;Temp;Humidity;BMP_temperature;BMP_pressure;BME280_temperature;BME280_humidity;BME280_pressure;Samples;Min_cycle;Max_cycle;Signal;HPM_P1;HPM_P2
2021/04/24 00:00:38;;;;;;;11.90;4.82;;;;;;;;;;5011102;28;20026;-70
2021/04/24 00:03:07;;;;;;;11.13;4.75;;;;;;;;;;5010916;28;20104;-71
2021/04/24 00:05:36;;;;;;;14.82;5.47;;;;;;;;;;5011201;28;20014;-70
2021/04/24 00:08:04;;;;;;;13.98;5.22;;;;;;;;;;5019267;28;20025;-70
2021/04/24 00:10:31;;;;;;;9.80;5.00;;;;;;;;;;5001850;28;20026;-70
2021/04/24 00:12:57;;;;;;;11.38;5.35;;;;;;;;;;5006802;28;20125;-69
2021/04/24 00:15:23;;;;;;;15.68;5.55;;;;;;;;;;5017175;28;20029;-70
2021/04/24 00:17:49;;;;;;;12.10;5.28;;;;;;;;;;5012526;28;20052;-70
2021/04/24 00:20:17;;;;;;;12.07;5.30;;;;;;;;;;5018717;28;20105;-70
2021/04/24 00:22:43;;;;;;;11.65;6.32;;;;;;;;;;5013782;28;20030;-71
2021/04/24 00:25:09;;;;;;;15.68;5.88;;;;;;;;;;5005010;28;20064;-70
2021/04/24 00:27:35;;;;;;;13.50;5.70;;;;;;;;;;5009037;28;20026;-70
2021/04/24 00:30:01;;;;;;;13.80;5.82;;;;;;;;;;5006430;28;20038;-71
2021/04/24 00:32:27;;;;;;;14.80;6.90;;;;;;;;;;5000061;28;20040;-71
2021/04/24 00:34:53;;;;;;;12.45;5.60;;;;;;;;;;5006371;28;20018;-70
2021/04/24 00:37:19;;;;;;;10.63;5.75;;;;;;;;;;5004726;28;20018;-69
2021/04/24 00:39:45;;;;;;;15.80;6.68;;;;;;;;;;5003240;28;20029;-70
2021/04/24 00:42:11;;;;;;;12.60;6.25;;;;;;;;;;5001072;28;20026;-70
2021/04/24 00:44:43;;;;;;;10.18;5.80;;;;;;;;;;5014679;28;20483;-70
2021/04/24 00:47:09;;;;;;;14.07;6.43;;;;;;;;;;5006563;28;20030;-70
2021/04/24 00:49:35;;;;;;;19.80;6.20;;;;;;;;;;5008445;28;20025;-70
2021/04/24 00:52:01;;;;;;;15.38;6.88;;;;;;;;;;5010404;28;20038;-70
2021/04/24 00:54:27;;;;;;;11.95;5.65;;;;;;;;;;5010258;28;20062;-70
2021/04/24 00:56:53;;;;;;;15.07;6.03;;;;;;;;;;5006261;28;20449;-70
2021/04/24 00:59:19;;;;;;;11.90;6.25;;;;;;;;;;5003537;28;20480;-70
2021/04/24 01:01:45;;;;;;;10.57;5.68;;;;;;;;;;5008285;28;20029;-70
2021/04/24 01:04:11;;;;;;;16.70;6.53;;;;;;;;;;5012132;28;20118;-70
2021/04/24 01:06:37;;;;;;;14.38;6.50;;;;;;;;;;5028712;28;20102;-72
2021/04/24 01:09:05;;;;;;;14.68;6.40;;;;;;;;;;5032656;28;20022;-71
2021/04/24 01:11:31;;;;;;;14.85;6.70;;;;;;;;;;5032768;28;20509;-70
2021/04/24 01:13:57;;;;;;;13.93;5.53;;;;;;;;;;5007017;28;20074;-71
2021/04/24 01:16:23;;;;;;;14.07;7.53;;;;;;;;;;4995787;28;20105;-70
2021/04/24 01:18:49;;;;;;;14.93;5.75;;;;;;;;;;5009187;28;20037;-70
2021/04/24 01:21:17;;;;;;;14.43;6.80;;;;;;;;;;5006681;28;20022;-70
2021/04/24 01:23:43;;;;;;;16.08;7.45;;;;;;;;;;5010865;28;20033;-70
2021/04/24 01:26:09;;;;;;;18.65;7.38;;;;;;;;;;5014234;28;20041;-70
2021/04/24 01:28:35;;;;;;;13.15;6.28;;;;;;;;;;5010238;28;20587;-70
2021/04/24 01:31:01;;;;;;;17.48;7.68;;;;;;;;;;5010871;28;20038;-70
2021/04/24 01:33:27;;;;;;;16.83;6.30;;;;;;;;;;5006578;28;20040;-71
2021/04/24 01:35:53;;;;;;;14.65;6.20;;;;;;;;;;5010830;28;20022;-70
2021/04/24 01:38:19;;;;;;;15.40;6.47;;;;;;;;;;4994753;28;20029;-70
2021/04/24 01:40:46;;;;;;;15.73;8.23;;;;;;;;;;5005321;28;20464;-70
2021/04/24 01:43:12;;;;;;;14.52;7.63;;;;;;;;;;5019617;28;20026;-70
2021/04/24 01:45:38;;;;;;;13.90;6.55;;;;;;;;;;5003976;28;20033;-70
2021/04/24 01:48:06;;;;;;;17.52;7.68;;;;;;;;;;5012653;28;20043;-70
2021/04/24 01:50:37;;;;;;;18.90;7.25;;;;;;;;;;5018255;28;20032;-70
2021/04/24 01:53:04;;;;;;;17.40;6.90;;;;;;;;;;5004537;28;20026;-70
2021/04/24 01:55:31;;;;;;;19.73;7.63;;;;;;;;;;5007261;28;20057;-70
2021/04/24 01:57:58;;;;;;;18.17;8.43;;;;;;;;;;4995727;28;20030;-70
2021/04/24 02:00:26;;;;;;;18.00;7.50;;;;;;;;;;5003952;28;20386;-71
2021/04/24 02:02:53;;;;;;;15.15;7.50;;;;;;;;;;5020544;28;20033;-70
2021/04/24 02:05:19;;;;;;;18.67;7.93;;;;;;;;;;5014456;28;20030;-70
2021/04/24 02:07:58;;;;;;;18.52;7.95;;;;;;;;;;5003182;28;20025;-70
2021/04/24 02:10:24;;;;;;;16.95;7.47;;;;;;;;;;5001910;28;20049;-71
2021/04/24 02:12:51;;;;;;;16.13;8.05;;;;;;;;;;5020779;28;20084;-71
2021/04/24 02:15:17;;;;;;;17.25;7.30;;;;;;;;;;5004348;28;20041;-71
2021/04/24 02:17:43;;;;;;;17.55;8.63;;;;;;;;;;5007088;28;20025;-70
2021/04/24 02:20:09;;;;;;;23.48;8.88;;;;;;;;;;5003966;28;20030;-72
2021/04/24 02:22:35;;;;;;;17.08;8.20;;;;;;;;;;5013804;28;20072;-70
2021/04/24 02:25:02;;;;;;;17.45;7.53;;;;;;;;;;5013600;28;20038;-70
2021/04/24 02:27:29;;;;;;;23.05;9.07;;;;;;;;;;5004762;28;20084;-71
2021/04/24 02:29:55;;;;;;;17.58;8.48;;;;;;;;;;5003862;28;20034;-69
2021/04/24 02:32:25;;;;;;;21.05;9.25;;;;;;;;;;5001119;28;20037;-69
2021/04/24 02:34:51;;;;;;;23.10;7.93;;;;;;;;;;5005204;28;20021;-69
2021/04/24 02:37:18;;;;;;;20.55;8.32;;;;;;;;;;5007813;28;20026;-70
2021/04/24 02:39:45;;;;;;;16.95;8.75;;;;;;;;;;5017599;28;20029;-70
2021/04/24 02:42:15;;;;;;;20.23;7.75;;;;;;;;;;5019051;28;20479;-69
2021/04/24 02:44:41;;;;;;;19.52;8.40;;;;;;;;;;5009140;28;20379;-69
2021/04/24 02:47:08;;;;;;;17.70;8.02;;;;;;;;;;5006291;28;20325;-70
2021/04/24 02:49:34;;;;;;;22.90;8.88;;;;;;;;;;5013142;28;20048;-70
2021/04/24 02:52:01;;;;;;;21.95;8.80;;;;;;;;;;4998255;28;20029;-71
2021/04/24 02:54:27;;;;;;;18.08;8.88;;;;;;;;;;5008370;28;20206;-70
2021/04/24 02:56:53;;;;;;;23.98;9.10;;;;;;;;;;5013209;28;20071;-70
2021/04/24 02:59:19;;;;;;;21.88;8.95;;;;;;;;;;5005117;28;20121;-71
2021/04/24 03:01:45;;;;;;;18.35;9.35;;;;;;;;;;5010573;28;20542;-70
2021/04/24 03:04:12;;;;;;;18.33;8.38;;;;;;;;;;5026664;28;20065;-70
2021/04/24 03:06:38;;;;;;;17.45;8.20;;;;;;;;;;5015543;28;20030;-71
2021/04/24 03:09:04;;;;;;;21.05;9.52;;;;;;;;;;5010838;28;20030;-71
2021/04/24 03:11:30;;;;;;;22.23;9.13;;;;;;;;;;5026038;28;20025;-70
2021/04/24 03:13:56;;;;;;;20.38;9.43;;;;;;;;;;5008904;28;20033;-71
2021/04/24 03:16:22;;;;;;;23.98;8.65;;;;;;;;;;5027282;28;20030;-71
2021/04/24 03:18:48;;;;;;;19.40;8.95;;;;;;;;;;5016480;28;20037;-70
2021/04/24 03:21:14;;;;;;;19.27;8.80;;;;;;;;;;5018335;28;20022;-70
2021/04/24 03:23:41;;;;;;;25.10;10.25;;;;;;;;;;5007466;28;20037;-70
2021/04/24 03:26:07;;;;;;;19.83;9.45;;;;;;;;;;5003982;28;20029;-70
2021/04/24 03:28:33;;;;;;;22.58;9.88;;;;;;;;;;5011622;28;20391;-70
2021/04/24 03:30:59;;;;;;;21.63;9.90;;;;;;;;;;5017556;28;20025;-69
2021/04/24 03:33:25;;;;;;;18.55;8.73;;;;;;;;;;5008089;28;20037;-71
2021/04/24 03:35:51;;;;;;;20.48;9.77;;;;;;;;;;5007090;28;20030;-70
2021/04/24 03:38:17;;;;;;;22.38;9.90;;;;;;;;;;5020080;28;20137;-70
2021/04/24 03:40:43;;;;;;;24.05;9.95;;;;;;;;;;5006018;28;20048;-70
2021/04/24 03:43:09;;;;;;;20.17;9.10;;;;;;;;;;5016561;28;20031;-70
2021/04/24 03:45:36;;;;;;;26.45;9.50;;;;;;;;;;5010410;28;20022;-70
2021/04/24 03:48:01;;;;;;;21.52;10.15;;;;;;;;;;5019818;28;20084;-71
2021/04/24 03:50:27;;;;;;;20.55;9.27;;;;;;;;;;5002409;28;20034;-70
2021/04/24 03:52:54;;;;;;;20.38;9.25;;;;;;;;;;5002983;28;20451;-70
2021/04/24 03:55:21;;;;;;;21.88;9.75;;;;;;;;;;5004715;28;20061;-70
2021/04/24 03:57:47;;;;;;;25.58;11.07;;;;;;;;;;5018721;28;20056;-70
2021/04/24 04:00:15;;;;;;;26.45;10.00;;;;;;;;;;5015115;28;20031;-70
2021/04/24 04:02:56;;;;;;;23.80;10.75;;;;;;;;;;5009948;28;20022;-70
2021/04/24 04:05:23;;;;;;;21.48;9.55;;;;;;;;;;5017174;28;20037;-70
2021/04/24 04:07:49;;;;;;;24.65;10.15;;;;;;;;;;5011816;28;20025;-70
2021/04/24 04:10:16;;;;;;;20.33;8.93;;;;;;;;;;5028696;28;20028;-71
2021/04/24 04:12:42;;;;;;;29.40;9.48;;;;;;;;;;5041823;28;20030;-71
2021/04/24 04:15:08;;;;;;;24.25;9.90;;;;;;;;;;5023893;28;20026;-70
2021/04/24 04:17:37;;;;;;;23.10;9.52;;;;;;;;;;5023846;28;20622;-74
2021/04/24 04:20:04;;;;;;;23.05;10.43;;;;;;;;;;5008063;28;20022;-70
2021/04/24 04:22:30;;;;;;;23.67;9.55;;;;;;;;;;5010985;28;20498;-71
2021/04/24 04:24:56;;;;;;;19.95;9.23;;;;;;;;;;5010679;28;20092;-70
2021/04/24 04:27:22;;;;;;;23.27;10.23;;;;;;;;;;5013822;28;20030;-70
2021/04/24 04:29:48;;;;;;;23.17;9.02;;;;;;;;;;5008825;28;20418;-69
2021/04/24 04:32:14;;;;;;;22.55;10.73;;;;;;;;;;5012123;28;20029;-71
2021/04/24 04:34:40;;;;;;;22.73;9.93;;;;;;;;;;5011288;28;20026;-70
2021/04/24 04:37:06;;;;;;;17.63;8.90;;;;;;;;;;5011437;28;20059;-72
2021/04/24 04:39:32;;;;;;;22.10;10.02;;;;;;;;;;5023014;28;20045;-70
2021/04/24 04:41:57;;;;;;;20.58;8.93;;;;;;;;;;5019668;28;20472;-71
2021/04/24 04:44:23;;;;;;;21.10;8.88;;;;;;;;;;5023109;28;20406;-71
2021/04/24 04:46:49;;;;;;;19.13;9.43;;;;;;;;;;5039037;28;20021;-72
2021/04/24 04:49:15;;;;;;;21.45;9.90;;;;;;;;;;5022270;28;20042;-70
2021/04/24 04:51:41;;;;;;;20.35;9.30;;;;;;;;;;5022818;28;20034;-70
2021/04/24 04:54:07;;;;;;;22.35;10.23;;;;;;;;;;5035632;28;20053;-72
2021/04/24 04:56:33;;;;;;;21.00;9.90;;;;;;;;;;5026929;28;20029;-70
2021/04/24 04:58:59;;;;;;;22.27;8.80;;;;;;;;;;5034008;28;20040;-70
2021/04/24 05:01:25;;;;;;;20.52;8.75;;;;;;;;;;5014534;28;20080;-70
2021/04/24 05:03:51;;;;;;;19.10;9.13;;;;;;;;;;5026041;28;20488;-70
2021/04/24 05:06:17;;;;;;;15.63;8.90;;;;;;;;;;5006327;28;20539;-70
2021/04/24 05:08:43;;;;;;;16.55;8.98;;;;;;;;;;5004507;28;20388;-70
2021/04/24 05:11:09;;;;;;;17.50;7.90;;;;;;;;;;5004030;28;20417;-70
2021/04/24 05:13:35;;;;;;;18.65;9.43;;;;;;;;;;5012515;28;20052;-70
2021/04/24 05:16:01;;;;;;;17.30;8.18;;;;;;;;;;5022648;28;20025;-71
2021/04/24 05:18:27;;;;;;;19.27;8.05;;;;;;;;;;5006050;28;20499;-70
2021/04/24 05:20:53;;;;;;;17.40;8.23;;;;;;;;;;5009352;28;20017;-70
2021/04/24 05:23:19;;;;;;;19.92;8.82;;;;;;;;;;5010817;28;20036;-70
2021/04/24 05:25:45;;;;;;;16.33;7.35;;;;;;;;;;5014633;28;20021;-70
2021/04/24 05:28:11;;;;;;;20.05;8.43;;;;;;;;;;5018398;28;20093;-70
2021/04/24 05:30:37;;;;;;;18.45;8.43;;;;;;;;;;5008194;28;20030;-71
2021/04/24 05:33:03;;;;;;;20.48;8.55;;;;;;;;;;5009232;28;20034;-71
2021/04/24 05:35:29;;;;;;;16.52;8.27;;;;;;;;;;5011130;28;20049;-70
2021/04/24 05:37:55;;;;;;;18.35;8.27;;;;;;;;;;4991842;28;20026;-71
2021/04/24 05:40:21;;;;;;;19.58;8.68;;;;;;;;;;4994320;28;20044;-71
2021/04/24 05:42:47;;;;;;;17.65;7.88;;;;;;;;;;4994583;28;20373;-71
2021/04/24 05:45:14;;;;;;;17.58;9.20;;;;;;;;;;4994018;28;20069;-71
2021/04/24 05:47:40;;;;;;;15.07;7.78;;;;;;;;;;4997959;28;20030;-71
2021/04/24 05:50:07;;;;;;;15.85;8.38;;;;;;;;;;4996676;28;20376;-71
2021/04/24 05:52:34;;;;;;;16.58;7.82;;;;;;;;;;5004256;28;20388;-71
2021/04/24 05:55:00;;;;;;;15.85;8.43;;;;;;;;;;5009997;28;20045;-70
2021/04/24 05:57:26;;;;;;;19.60;8.80;;;;;;;;;;4997329;28;20142;-71
2021/04/24 05:59:52;;;;;;;16.35;8.27;;;;;;;;;;5011037;28;20108;-72
2021/04/24 06:02:18;;;;;;;15.55;7.93;;;;;;;;;;5009753;28;20112;-70
2021/04/24 06:04:44;;;;;;;13.82;6.90;;;;;;;;;;5016556;28;20556;-71
2021/04/24 06:07:10;;;;;;;15.50;7.68;;;;;;;;;;5001568;28;20357;-71
2021/04/24 06:09:36;;;;;;;12.75;8.20;;;;;;;;;;5004935;28;20036;-70
2021/04/24 06:12:02;;;;;;;19.33;8.00;;;;;;;;;;5007101;28;20096;-70
2021/04/24 06:14:28;;;;;;;13.13;7.38;;;;;;;;;;4999336;28;20021;-70
2021/04/24 06:16:56;;;;;;;16.25;8.15;;;;;;;;;;5002309;28;20036;-71
2021/04/24 06:19:22;;;;;;;12.30;7.40;;;;;;;;;;5000361;28;20025;-70
2021/04/24 06:21:48;;;;;;;11.85;6.90;;;;;;;;;;5000688;28;20080;-70
2021/04/24 06:24:14;;;;;;;16.45;8.65;;;;;;;;;;4998022;28;20061;-70
2021/04/24 06:26:40;;;;;;;13.50;6.75;;;;;;;;;;4995805;28;20030;-70
2021/04/24 06:29:06;;;;;;;12.75;6.90;;;;;;;;;;4998236;28;20538;-70
2021/04/24 06:31:31;;;;;;;13.35;7.28;;;;;;;;;;4994004;28;20128;-70
2021/04/24 06:33:58;;;;;;;16.13;6.70;;;;;;;;;;4997382;28;20065;-71
2021/04/24 06:36:24;;;;;;;11.57;7.18;;;;;;;;;;5004286;28;20026;-69
2021/04/24 06:38:51;;;;;;;26.40;7.53;;;;;;;;;;4995231;28;20026;-70
2021/04/24 06:41:16;;;;;;;14.00;6.97;;;;;;;;;;5004012;28;20032;-70
2021/04/24 06:43:42;;;;;;;13.52;6.50;;;;;;;;;;4992070;28;20034;-71
2021/04/24 06:46:08;;;;;;;13.82;7.20;;;;;;;;;;4991516;28;20085;-70
2021/04/24 06:48:34;;;;;;;15.73;7.63;;;;;;;;;;4992841;28;20102;-70
2021/04/24 06:51:00;;;;;;;11.25;6.18;;;;;;;;;;4992666;28;20454;-70
2021/04/24 06:53:26;;;;;;;11.38;5.93;;;;;;;;;;4993050;28;20376;-70
2021/04/24 06:55:54;;;;;;;12.52;5.90;;;;;;;;;;4993144;28;20029;-71
2021/04/24 06:58:20;;;;;;;12.55;6.13;;;;;;;;;;4990876;28;20026;-70
2021/04/24 07:00:47;;;;;;;6.75;3.97;;;;;;;;;;4991081;28;20740;-70
2021/04/24 07:03:12;;;;;;;7.22;3.40;;;;;;;;;;4988801;28;20448;-70
2021/04/24 07:05:38;;;;;;;8.05;3.70;;;;;;;;;;4994827;28;20057;-70
2021/04/24 07:08:05;;;;;;;7.97;4.05;;;;;;;;;;4993416;28;20408;-70
2021/04/24 07:10:31;;;;;;;8.43;4.00;;;;;;;;;;4990590;28;20528;-70
2021/04/24 07:12:57;;;;;;;12.20;3.90;;;;;;;;;;5008904;28;20031;-72
2021/04/24 07:15:23;;;;;;;7.25;3.30;;;;;;;;;;5021686;28;20025;-70
2021/04/24 07:17:49;;;;;;;6.80;3.40;;;;;;;;;;5007207;28;20745;-70
2021/04/24 07:20:16;;;;;;;7.28;3.70;;;;;;;;;;4996430;28;20049;-71
2021/04/24 07:22:42;;;;;;;10.20;3.53;;;;;;;;;;4996310;28;20034;-70
2021/04/24 07:25:08;;;;;;;8.27;3.45;;;;;;;;;;4994741;28;20033;-70
2021/04/24 07:27:35;;;;;;;6.28;3.28;;;;;;;;;;4995724;28;20077;-70
2021/04/24 07:30:01;;;;;;;7.53;3.70;;;;;;;;;;4994158;28;20404;-71
2021/04/24 07:32:27;;;;;;;5.43;3.05;;;;;;;;;;4991732;28;20073;-72
2021/04/24 07:34:53;;;;;;;5.80;3.63;;;;;;;;;;4992271;28;20056;-70
2021/04/24 07:37:19;;;;;;;8.02;4.00;;;;;;;;;;4995548;28;20026;-71
2021/04/24 07:39:45;;;;;;;7.18;3.10;;;;;;;;;;4996742;28;20048;-70
2021/04/24 07:42:11;;;;;;;9.38;3.33;;;;;;;;;;4988965;28;20026;-70
2021/04/24 07:44:38;;;;;;;9.07;4.00;;;;;;;;;;5000860;28;20031;-70
2021/04/24 07:47:05;;;;;;;9.30;4.72;;;;;;;;;;4989210;28;20030;-70
2021/04/24 07:49:31;;;;;;;6.00;3.65;;;;;;;;;;5003226;28;20169;-70
2021/04/24 07:51:57;;;;;;;9.68;4.63;;;;;;;;;;4997220;28;20519;-70
2021/04/24 07:54:23;;;;;;;9.98;4.72;;;;;;;;;;4996929;28;20032;-70
2021/04/24 07:56:48;;;;;;;7.57;4.68;;;;;;;;;;4994230;28;20169;-70
2021/04/24 07:59:14;;;;;;;11.13;4.40;;;;;;;;;;4997173;28;20021;-69
2021/04/24 08:01:41;;;;;;;8.90;4.18;;;;;;;;;;4994726;28;20442;-70
2021/04/24 08:04:07;;;;;;;8.77;4.15;;;;;;;;;;4992416;28;20026;-70
2021/04/24 08:06:34;;;;;;;10.63;3.47;;;;;;;;;;4996300;28;20023;-70
2021/04/24 08:09:00;;;;;;;8.90;3.75;;;;;;;;;;4992638;28;20473;-70
2021/04/24 08:11:26;;;;;;;8.95;4.45;;;;;;;;;;4996543;28;20614;-70
2021/04/24 08:13:52;;;;;;;7.88;4.68;;;;;;;;;;4994465;28;20034;-69
2021/04/24 08:16:18;;;;;;;7.75;4.57;;;;;;;;;;4991844;28;20476;-70
2021/04/24 08:18:44;;;;;;;12.60;4.70;;;;;;;;;;4989291;28;20046;-70
2021/04/24 08:21:10;;;;;;;8.82;4.43;;;;;;;;;;4995687;28;20022;-70
2021/04/24 08:23:36;;;;;;;6.60;3.95;;;;;;;;;;4993462;28;20565;-70
2021/04/24 08:26:02;;;;;;;7.15;3.78;;;;;;;;;;4992208;28;20038;-70
2021/04/24 08:28:28;;;;;;;10.25;3.05;;;;;;;;;;4993221;28;20074;-72
2021/04/24 08:30:54;;;;;;;8.05;4.25;;;;;;;;;;4992016;28;20022;-71
2021/04/24 08:33:20;;;;;;;4.65;3.42;;;;;;;;;;5001330;28;20248;-71
2021/04/24 08:35:46;;;;;;;6.65;3.20;;;;;;;;;;5006772;28;20060;-70
2021/04/24 08:38:12;;;;;;;5.25;3.20;;;;;;;;;;4995315;28;20109;-70
2021/04/24 08:40:38;;;;;;;5.78;3.67;;;;;;;;;;4999050;28;20530;-70
2021/04/24 08:43:04;;;;;;;6.53;3.67;;;;;;;;;;4995809;28;20030;-71
2021/04/24 08:45:31;;;;;;;6.35;3.67;;;;;;;;;;4997991;28;20471;-71
2021/04/24 08:47:57;;;;;;;7.28;3.65;;;;;;;;;;4992398;28;20396;-71
2021/04/24 08:50:24;;;;;;;8.02;3.47;;;;;;;;;;5003937;28;20030;-71
2021/04/24 08:52:52;;;;;;;6.13;2.92;;;;;;;;;;4991756;28;20022;-71
2021/04/24 08:55:38;;;;;;;5.75;3.17;;;;;;;;;;4996990;28;20030;-71
2021/04/24 08:58:05;;;;;;;8.32;2.90;;;;;;;;;;4998386;28;20400;-70
2021/04/24 09:00:36;;;;;;;6.80;2.85;;;;;;;;;;5003885;28;20045;-70
2021/04/24 09:03:03;;;;;;;5.60;3.00;;;;;;;;;;4991785;28;20045;-70
2021/04/24 09:05:28;;;;;;;5.70;3.05;;;;;;;;;;4991315;28;20041;-70
2021/04/24 09:07:58;;;;;;;5.03;2.65;;;;;;;;;;5000642;28;20055;-70
2021/04/24 09:10:24;;;;;;;6.75;2.72;;;;;;;;;;5000541;28;20034;-70
2021/04/24 09:12:51;;;;;;;6.72;2.78;;;;;;;;;;4997412;28;20015;-70
2021/04/24 09:15:19;;;;;;;5.55;2.55;;;;;;;;;;4996578;28;20030;-70
2021/04/24 09:17:49;;;;;;;5.95;2.83;;;;;;;;;;5003225;28;20045;-70
2021/04/24 09:20:15;;;;;;;9.18;3.42;;;;;;;;;;4997114;28;20037;-70
2021/04/24 09:22:41;;;;;;;5.32;2.60;;;;;;;;;;4992410;28;20023;-70
2021/04/24 09:25:07;;;;;;;5.18;2.95;;;;;;;;;;4988357;28;20673;-71
2021/04/24 09:27:47;;;;;;;7.20;3.08;;;;;;;;;;4990528;28;20026;-71
2021/04/24 09:30:21;;;;;;;9.45;3.20;;;;;;;;;;4991173;28;20038;-71
2021/04/24 09:32:48;;;;;;;6.30;2.38;;;;;;;;;;4988297;28;20058;-71
2021/04/24 09:35:21;;;;;;;4.40;2.55;;;;;;;;;;4989515;28;20101;-71
2021/04/24 09:37:56;;;;;;;7.75;2.60;;;;;;;;;;4988676;28;20058;-71
2021/04/24 09:40:22;;;;;;;6.15;2.65;;;;;;;;;;4991692;28;20022;-71
2021/04/24 09:42:48;;;;;;;5.90;2.78;;;;;;;;;;4989166;28;20502;-71
2021/04/24 09:45:34;;;;;;;6.75;2.70;;;;;;;;;;4989015;28;20029;-71
2021/04/24 09:48:00;;;;;;;4.43;2.15;;;;;;;;;;4988604;28;20512;-71
2021/04/24 09:50:44;;;;;;;3.55;1.88;;;;;;;;;;4991450;28;20029;-70
2021/04/24 09:53:14;;;;;;;4.43;1.42;;;;;;;;;;4989734;28;20054;-71
2021/04/24 09:55:40;;;;;;;2.85;1.40;;;;;;;;;;4993368;28;20026;-71
2021/04/24 09:58:23;;;;;;;5.53;1.75;;;;;;;;;;4989684;28;20049;-71
2021/04/24 10:00:49;;;;;;;2.58;1.67;;;;;;;;;;4987898;28;20427;-70
2021/04/24 10:03:33;;;;;;;4.80;1.85;;;;;;;;;;4990829;28;20097;-71
2021/04/24 10:06:19;;;;;;;1.73;1.17;;;;;;;;;;4992905;28;20030;-70
2021/04/24 10:08:45;;;;;;;3.63;1.10;;;;;;;;;;4991662;28;20476;-71
2021/04/24 10:11:25;;;;;;;2.55;0.80;;;;;;;;;;4990198;28;20029;-70
2021/04/24 10:13:51;;;;;;;3.03;1.23;;;;;;;;;;4987035;28;20030;-70
2021/04/24 10:16:35;;;;;;;2.05;1.00;;;;;;;;;;5001755;28;20105;-71
2021/04/24 10:19:03;;;;;;;2.88;1.10;;;;;;;;;;4990459;28;20030;-70
2021/04/24 10:21:30;;;;;;;2.75;0.60;;;;;;;;;;4999676;28;20034;-70
2021/04/24 10:23:56;;;;;;;2.13;0.65;;;;;;;;;;4991933;28;20944;-70
2021/04/24 10:26:22;;;;;;;3.10;1.08;;;;;;;;;;4995799;28;20038;-70
2021/04/24 10:28:48;;;;;;;1.90;0.75;;;;;;;;;;4988033;28;20109;-70
2021/04/24 10:31:14;;;;;;;3.17;1.02;;;;;;;;;;4991284;28;20388;-70
2021/04/24 10:33:40;;;;;;;5.70;1.05;;;;;;;;;;4998236;28;20053;-71
2021/04/24 10:36:07;;;;;;;3.17;1.20;;;;;;;;;;4997056;28;20030;-71
2021/04/24 10:38:33;;;;;;;2.13;1.05;;;;;;;;;;5011246;28;20021;-71
2021/04/24 10:41:00;;;;;;;2.25;1.10;;;;;;;;;;4994633;28;20033;-72
2021/04/24 10:43:26;;;;;;;3.15;1.17;;;;;;;;;;4997774;28;20387;-71
2021/04/24 10:45:52;;;;;;;2.08;1.20;;;;;;;;;;4992318;28;20378;-71
2021/04/24 10:48:24;;;;;;;4.55;0.80;;;;;;;;;;4989588;28;20040;-71
2021/04/24 10:50:50;;;;;;;3.65;1.60;;;;;;;;;;4989989;28;20030;-71
2021/04/24 10:53:17;;;;;;;1.55;1.10;;;;;;;;;;4989480;28;20052;-72
2021/04/24 10:55:43;;;;;;;2.70;1.35;;;;;;;;;;4998295;28;20018;-71
2021/04/24 10:58:14;;;;;;;3.10;1.50;;;;;;;;;;4997587;28;20035;-71
2021/04/24 11:00:47;;;;;;;3.35;1.40;;;;;;;;;;4990942;28;20440;-71
2021/04/24 11:03:33;;;;;;;2.45;1.17;;;;;;;;;;4994150;28;20034;-71
2021/04/24 11:06:07;;;;;;;4.60;1.70;;;;;;;;;;4996985;28;20459;-71
2021/04/24 11:08:33;;;;;;;3.67;1.30;;;;;;;;;;4988806;28;20026;-71
2021/04/24 11:11:01;;;;;;;5.80;2.30;;;;;;;;;;4994073;28;20509;-71
2021/04/24 11:13:29;;;;;;;3.92;2.72;;;;;;;;;;5000533;28;20034;-71
2021/04/24 11:15:55;;;;;;;3.53;2.28;;;;;;;;;;4997611;28;20026;-71
2021/04/24 11:18:21;;;;;;;3.22;1.83;;;;;;;;;;4989864;28;20030;-70
2021/04/24 11:20:47;;;;;;;6.95;2.33;;;;;;;;;;4999611;28;20030;-70
2021/04/24 11:23:32;;;;;;;5.32;2.03;;;;;;;;;;4991436;28;20034;-70
2021/04/24 11:25:59;;;;;;;3.65;1.92;;;;;;;;;;4995858;28;20035;-70
2021/04/24 11:28:25;;;;;;;3.70;1.95;;;;;;;;;;5002922;28;20065;-69
2021/04/24 11:30:51;;;;;;;3.08;1.80;;;;;;;;;;4998319;28;20030;-69
2021/04/24 11:33:36;;;;;;;4.68;1.95;;;;;;;;;;4999261;28;20455;-69
2021/04/24 11:36:16;;;;;;;7.43;2.35;;;;;;;;;;5005222;28;20855;-70
2021/04/24 11:39:00;;;;;;;5.65;2.10;;;;;;;;;;4996276;28;20085;-70
2021/04/24 11:41:45;;;;;;;3.83;1.90;;;;;;;;;;5005349;28;20036;-70
2021/04/24 11:44:26;;;;;;;23.90;3.45;;;;;;;;;;4996622;28;20123;-71
2021/04/24 11:46:54;;;;;;;16.50;3.20;;;;;;;;;;4998103;28;20058;-69
2021/04/24 11:49:21;;;;;;;8.52;2.08;;;;;;;;;;4996084;28;20488;-69
2021/04/24 11:51:54;;;;;;;15.45;3.00;;;;;;;;;;4999235;28;20108;-69
2021/04/24 11:54:21;;;;;;;7.20;2.22;;;;;;;;;;5001255;28;20478;-69
2021/04/24 11:56:48;;;;;;;22.98;4.15;;;;;;;;;;4997707;28;20048;-69
2021/04/24 11:59:24;;;;;;;11.10;2.53;;;;;;;;;;4998436;28;20034;-69
2021/04/24 12:01:50;;;;;;;5.68;2.50;;;;;;;;;;4992267;28;20026;-69
2021/04/24 12:04:24;;;;;;;3.88;1.77;;;;;;;;;;4999354;28;20510;-69
2021/04/24 12:06:58;;;;;;;3.65;1.50;;;;;;;;;;4997184;28;20026;-69
2021/04/24 12:09:24;;;;;;;9.02;2.72;;;;;;;;;;5004578;28;20080;-69
2021/04/24 12:11:58;;;;;;;5.47;2.28;;;;;;;;;;5003227;28;20034;-69
2021/04/24 12:14:24;;;;;;;5.40;2.00;;;;;;;;;;5007759;28;20396;-69
2021/04/24 12:16:50;;;;;;;5.38;2.20;;;;;;;;;;5004112;28;20097;-69
2021/04/24 12:19:37;;;;;;;7.30;2.70;;;;;;;;;;5002824;28;20129;-69
2021/04/24 12:22:04;;;;;;;7.70;2.75;;;;;;;;;;5002985;28;20439;-69
2021/04/24 12:24:30;;;;;;;6.95;2.75;;;;;;;;;;4994296;28;20027;-69
2021/04/24 12:26:56;;;;;;;7.85;3.17;;;;;;;;;;4993176;28;20049;-67
2021/04/24 12:29:40;;;;;;;4.85;2.90;;;;;;;;;;4996672;28;20030;-69
2021/04/24 12:32:13;;;;;;;7.88;2.85;;;;;;;;;;4994972;28;20114;-69
2021/04/24 12:34:40;;;;;;;6.47;3.35;;;;;;;;;;4993374;28;20488;-69
2021/04/24 12:37:08;;;;;;;9.02;4.20;;;;;;;;;;4994167;28;20030;-69
2021/04/24 12:39:34;;;;;;;9.18;4.25;;;;;;;;;;4993584;28;20050;-68
2021/04/24 12:42:02;;;;;;;9.27;4.78;;;;;;;;;;4994601;28;20113;-69
2021/04/24 12:44:29;;;;;;;6.05;3.45;;;;;;;;;;5001462;28;20029;-68
2021/04/24 12:46:55;;;;;;;9.30;4.35;;;;;;;;;;4996020;28;20510;-69
2021/04/24 12:49:21;;;;;;;10.35;3.70;;;;;;;;;;4996201;28;20465;-69
2021/04/24 12:52:04;;;;;;;7.68;4.28;;;;;;;;;;4990758;28;20329;-68
2021/04/24 12:54:30;;;;;;;11.50;4.72;;;;;;;;;;4995182;28;20033;-68
2021/04/24 12:57:18;;;;;;;11.43;4.43;;;;;;;;;;4996229;28;20484;-68
2021/04/24 12:59:43;;;;;;;8.65;4.32;;;;;;;;;;5004210;28;20476;-68
2021/04/24 13:02:09;;;;;;;13.73;5.63;;;;;;;;;;4991666;28;20034;-68
2021/04/24 13:04:35;;;;;;;9.95;5.07;;;;;;;;;;4993911;28;20038;-68
2021/04/24 13:07:02;;;;;;;12.15;4.57;;;;;;;;;;4995199;28;20057;-69
2021/04/24 13:09:32;;;;;;;9.63;4.78;;;;;;;;;;4992428;28;20174;-69
2021/04/24 13:12:05;;;;;;;7.40;4.03;;;;;;;;;;4995026;28;20495;-69
2021/04/24 13:14:39;;;;;;;9.65;4.85;;;;;;;;;;4998286;28;20031;-68
2021/04/24 13:17:09;;;;;;;10.88;4.70;;;;;;;;;;4994647;28;20025;-68
2021/04/24 13:19:46;;;;;;;8.53;5.00;;;;;;;;;;5005243;28;20026;-69
2021/04/24 13:22:12;;;;;;;8.43;4.80;;;;;;;;;;5001129;28;20036;-69
2021/04/24 13:24:44;;;;;;;7.07;4.15;;;;;;;;;;4991637;28;20038;-69
2021/04/24 13:27:10;;;;;;;12.88;5.00;;;;;;;;;;5008950;28;20030;-69
2021/04/24 13:29:39;;;;;;;12.35;5.07;;;;;;;;;;5020954;28;20028;-69
2021/04/24 13:32:05;;;;;;;10.07;4.43;;;;;;;;;;5011681;28;20120;-69
2021/04/24 13:34:31;;;;;;;6.70;4.25;;;;;;;;;;5008259;28;20420;-69
2021/04/24 13:36:58;;;;;;;8.75;4.70;;;;;;;;;;5004534;28;20084;-69
2021/04/24 13:39:26;;;;;;;11.13;4.53;;;;;;;;;;4997242;28;20034;-69
2021/04/24 13:41:52;;;;;;;9.95;4.20;;;;;;;;;;5000939;28;20026;-70
2021/04/24 13:44:19;;;;;;;8.20;4.28;;;;;;;;;;5001781;28;20045;-68
2021/04/24 13:46:49;;;;;;;13.35;5.10;;;;;;;;;;4993493;28;20057;-69
2021/04/24 13:49:18;;;;;;;10.90;4.15;;;;;;;;;;5000779;28;20060;-69
2021/04/24 13:51:45;;;;;;;11.05;4.53;;;;;;;;;;5000929;28;20056;-69
2021/04/24 13:54:11;;;;;;;8.45;4.40;;;;;;;;;;5000687;28;20026;-69
2021/04/24 13:56:37;;;;;;;11.30;4.20;;;;;;;;;;5000325;28;20069;-69
2021/04/24 13:59:07;;;;;;;10.95;4.30;;;;;;;;;;4997701;28;20554;-69
2021/04/24 14:01:33;;;;;;;11.55;4.35;;;;;;;;;;4999229;28;20030;-69
2021/04/24 14:03:59;;;;;;;9.10;3.78;;;;;;;;;;4998478;28;20040;-69
2021/04/24 14:06:26;;;;;;;8.18;3.80;;;;;;;;;;4998575;28;20030;-69
2021/04/24 14:08:52;;;;;;;6.70;3.25;;;;;;;;;;4997041;28;20081;-69
2021/04/24 14:11:17;;;;;;;8.88;4.03;;;;;;;;;;5001492;28;20515;-69
2021/04/24 14:13:44;;;;;;;11.75;4.05;;;;;;;;;;4996986;28;20518;-70
2021/04/24 14:16:10;;;;;;;12.07;3.30;;;;;;;;;;4999061;28;20364;-68
2021/04/24 14:18:36;;;;;;;6.57;3.20;;;;;;;;;;4998916;28;20555;-68
2021/04/24 14:21:03;;;;;;;9.27;3.47;;;;;;;;;;4995328;28;20488;-68
2021/04/24 14:23:29;;;;;;;9.27;2.72;;;;;;;;;;4999472;28;20383;-70
2021/04/24 14:25:55;;;;;;;12.68;3.35;;;;;;;;;;4993694;28;20035;-69
2021/04/24 14:28:21;;;;;;;8.45;3.50;;;;;;;;;;4997487;28;20028;-70
2021/04/24 14:30:47;;;;;;;9.27;3.30;;;;;;;;;;4994788;28;20022;-69
2021/04/24 14:33:13;;;;;;;10.23;3.22;;;;;;;;;;4994346;28;20062;-69
2021/04/24 14:35:39;;;;;;;8.02;3.17;;;;;;;;;;4998151;28;20026;-69
2021/04/24 14:38:05;;;;;;;8.65;2.58;;;;;;;;;;5000934;28;20500;-69